sensor_id;sensor_type;location;lat;lon;timestamp;P1;durP1;ratioP1;P2;durP2;ratioP2
19535;SDS011;9913;51.168;4.124;2024-02-26T00:01:15;4.20;;;1.90;;
19535;SDS011;9913;51.168;4.124;2024-02-26T00:03:45;2.57;;;2.13;;
19535;SDS011;9913;51.168;4.124;2024-02-26T00:06:14;3.47;;;2.30;;
19535;SDS011;9913;51.168;4.124;2024-02-26T00:08:42;2.90;;;2.30;;
19535;SDS011;9913;51.168;4.124;2024-02-26T00:11:10;2.37;;;2.17;;
19535;SDS011;9913;51.168;4.124;2024-02-26T00:13:39;4.43;;;2.20;;
19535;SDS011;9913;51.168;4.124;2024-02-26T00:16:07;5.30;;;2.50;;
19535;SDS011;9913;51.168;4.124;2024-02-26T00:18:35;4.80;;;2.30;;
19535;SDS011;9913;51.168;4.124;2024-02-26T00:21:05;6.73;;;3.03;;
19535;SDS011;9913;51.168;4.124;2024-02-26T00:23:34;4.17;;;2.67;;
19535;SDS011;9913;51.168;4.124;2024-02-26T00:26:02;4.17;;;2.33;;
19535;SDS011;9913;51.168;4.124;2024-02-26T00:28:31;5.97;;;2.03;;
19535;SDS011;9913;51.168;4.124;2024-02-26T00:30:59;3.87;;;2.70;;
19535;SDS011;9913;51.168;4.124;2024-02-26T00:33:27;3.90;;;2.30;;
19535;SDS011;9913;51.168;4.124;2024-02-26T00:35:56;3.53;;;2.40;;
19535;SDS011;9913;51.168;4.124;2024-02-26T00:38:26;4.50;;;2.60;;
19535;SDS011;9913;51.168;4.124;2024-02-26T00:40:54;5.40;;;2.50;;
19535;SDS011;9913;51.168;4.124;2024-02-26T00:43:22;5.37;;;2.27;;
19535;SDS011;9913;51.168;4.124;2024-02-26T00:45:51;4.80;;;2.50;;
19535;SDS011;9913;51.168;4.124;2024-02-26T00:48:19;3.80;;;2.40;;
19535;SDS011;9913;51.168;4.124;2024-02-26T00:50:48;3.80;;;2.80;;
19535;SDS011;9913;51.168;4.124;2024-02-26T00:53:16;3.63;;;2.60;;
19535;SDS011;9913;51.168;4.124;2024-02-26T00:55:46;3.80;;;2.70;;
19535;SDS011;9913;51.168;4.124;2024-02-26T00:58:14;5.10;;;2.30;;
19535;SDS011;9913;51.168;4.124;2024-02-26T01:00:43;4.23;;;2.20;;
19535;SDS011;9913;51.168;4.124;2024-02-26T01:03:11;3.17;;;2.13;;
19535;SDS011;9913;51.168;4.124;2024-02-26T01:05:39;3.63;;;2.07;;
19535;SDS011;9913;51.168;4.124;2024-02-26T01:08:08;6.77;;;2.40;;
19535;SDS011;9913;51.168;4.124;2024-02-26T01:10:37;2.23;;;2.00;;
19535;SDS011;9913;51.168;4.124;2024-02-26T01:13:07;3.23;;;2.20;;
19535;SDS011;9913;51.168;4.124;2024-02-26T01:15:35;4.30;;;2.10;;
19535;SDS011;9913;51.168;4.124;2024-02-26T01:18:03;4.67;;;2.57;;
19535;SDS011;9913;51.168;4.124;2024-02-26T01:20:32;3.07;;;2.10;;
19535;SDS011;9913;51.168;4.124;2024-02-26T01:23:00;5.03;;;2.40;;
19535;SDS011;9913;51.168;4.124;2024-02-26T01:25:29;4.37;;;2.47;;
19535;SDS011;9913;51.168;4.124;2024-02-26T01:27:57;3.80;;;2.37;;
19535;SDS011;9913;51.168;4.124;2024-02-26T01:30:27;3.47;;;2.50;;
19535;SDS011;9913;51.168;4.124;2024-02-26T01:32:55;3.43;;;2.30;;
19535;SDS011;9913;51.168;4.124;2024-02-26T01:35:23;3.43;;;2.13;;
19535;SDS011;9913;51.168;4.124;2024-02-26T01:37:53;4.30;;;2.40;;
19535;SDS011;9913;51.168;4.124;2024-02-26T01:40:21;3.73;;;2.40;;
19535;SDS011;9913;51.168;4.124;2024-02-26T01:42:50;4.47;;;2.67;;
19535;SDS011;9913;51.168;4.124;2024-02-26T01:45:20;3.83;;;2.70;;
19535;SDS011;9913;51.168;4.124;2024-02-26T01:47:52;4.70;;;3.10;;
19535;SDS011;9913;51.168;4.124;2024-02-26T01:50:23;4.37;;;2.60;;
19535;SDS011;9913;51.168;4.124;2024-02-26T01:52:52;3.23;;;2.63;;
19535;SDS011;9913;51.168;4.124;2024-02-26T01:55:22;3.93;;;2.60;;
19535;SDS011;9913;51.168;4.124;2024-02-26T01:57:52;4.03;;;2.43;;
19535;SDS011;9913;51.168;4.124;2024-02-26T02:00:21;3.73;;;2.70;;
19535;SDS011;9913;51.168;4.124;2024-02-26T02:02:50;5.40;;;2.60;;
19535;SDS011;9913;51.168;4.124;2024-02-26T02:05:21;4.60;;;2.43;;
19535;SDS011;9913;51.168;4.124;2024-02-26T02:07:51;4.90;;;2.50;;
19535;SDS011;9913;51.168;4.124;2024-02-26T02:10:19;5.07;;;2.60;;
19535;SDS011;9913;51.168;4.124;2024-02-26T02:12:52;4.10;;;2.53;;
19535;SDS011;9913;51.168;4.124;2024-02-26T02:15:20;4.10;;;2.50;;
19535;SDS011;9913;51.168;4.124;2024-02-26T02:17:49;4.33;;;2.60;;
19535;SDS011;9913;51.168;4.124;2024-02-26T02:20:19;4.27;;;2.40;;
19535;SDS011;9913;51.168;4.124;2024-02-26T02:22:54;4.30;;;2.77;;
19535;SDS011;9913;51.168;4.124;2024-02-26T02:25:22;3.73;;;2.93;;
19535;SDS011;9913;51.168;4.124;2024-02-26T02:27:50;4.50;;;3.47;;
19535;SDS011;9913;51.168;4.124;2024-02-26T02:30:21;4.37;;;3.77;;
19535;SDS011;9913;51.168;4.124;2024-02-26T02:32:51;4.80;;;3.40;;
19535;SDS011;9913;51.168;4.124;2024-02-26T02:35:21;5.93;;;4.10;;
19535;SDS011;9913;51.168;4.124;2024-02-26T02:37:51;5.43;;;3.93;;
19535;SDS011;9913;51.168;4.124;2024-02-26T02:40:19;6.23;;;4.73;;
19535;SDS011;9913;51.168;4.124;2024-02-26T02:42:48;7.73;;;4.87;;
19535;SDS011;9913;51.168;4.124;2024-02-26T02:45:16;7.80;;;5.40;;
19535;SDS011;9913;51.168;4.124;2024-02-26T02:47:44;8.50;;;5.20;;
19535;SDS011;9913;51.168;4.124;2024-02-26T02:50:13;7.00;;;5.57;;
19535;SDS011;9913;51.168;4.124;2024-02-26T02:52:41;8.30;;;6.60;;
19535;SDS011;9913;51.168;4.124;2024-02-26T02:55:11;8.87;;;6.00;;
19535;SDS011;9913;51.168;4.124;2024-02-26T02:57:40;7.33;;;5.93;;
19535;SDS011;9913;51.168;4.124;2024-02-26T03:00:09;8.63;;;5.70;;
19535;SDS011;9913;51.168;4.124;2024-02-26T03:02:38;8.23;;;6.70;;
19535;SDS011;9913;51.168;4.124;2024-02-26T03:05:07;9.83;;;6.83;;
19535;SDS011;9913;51.168;4.124;2024-02-26T03:07:36;8.77;;;7.20;;
19535;SDS011;9913;51.168;4.124;2024-02-26T03:10:05;9.53;;;7.17;;
19535;SDS011;9913;51.168;4.124;2024-02-26T03:12:35;9.60;;;7.47;;
19535;SDS011;9913;51.168;4.124;2024-02-26T03:15:04;10.57;;;7.80;;
19535;SDS011;9913;51.168;4.124;2024-02-26T03:17:32;11.50;;;7.73;;
19535;SDS011;9913;51.168;4.124;2024-02-26T03:20:01;10.17;;;7.80;;
19535;SDS011;9913;51.168;4.124;2024-02-26T03:22:31;9.50;;;7.80;;
19535;SDS011;9913;51.168;4.124;2024-02-26T03:24:59;10.20;;;7.70;;
19535;SDS011;9913;51.168;4.124;2024-02-26T03:27:28;11.70;;;8.73;;
19535;SDS011;9913;51.168;4.124;2024-02-26T03:29:58;12.10;;;9.23;;
19535;SDS011;9913;51.168;4.124;2024-02-26T03:32:26;13.30;;;9.40;;
19535;SDS011;9913;51.168;4.124;2024-02-26T03:34:55;13.77;;;10.10;;
19535;SDS011;9913;51.168;4.124;2024-02-26T03:37:23;13.67;;;10.37;;
19535;SDS011;9913;51.168;4.124;2024-02-26T03:39:51;13.60;;;9.90;;
19535;SDS011;9913;51.168;4.124;2024-02-26T03:42:19;14.50;;;10.63;;
19535;SDS011;9913;51.168;4.124;2024-02-26T03:44:48;13.53;;;11.03;;
19535;SDS011;9913;51.168;4.124;2024-02-26T03:47:18;16.87;;;11.97;;
19535;SDS011;9913;51.168;4.124;2024-02-26T03:49:46;13.53;;;11.23;;
19535;SDS011;9913;51.168;4.124;2024-02-26T03:52:15;14.37;;;11.17;;
19535;SDS011;9913;51.168;4.124;2024-02-26T03:54:43;15.33;;;10.77;;
19535;SDS011;9913;51.168;4.124;2024-02-26T03:57:12;13.50;;;10.70;;
19535;SDS011;9913;51.168;4.124;2024-02-26T03:59:40;13.87;;;11.53;;
19535;SDS011;9913;51.168;4.124;2024-02-26T04:02:08;12.63;;;10.70;;
19535;SDS011;9913;51.168;4.124;2024-02-26T04:04:38;12.70;;;10.30;;
19535;SDS011;9913;51.168;4.124;2024-02-26T04:07:07;11.93;;;10.07;;
19535;SDS011;9913;51.168;4.124;2024-02-26T04:09:35;12.97;;;10.27;;
19535;SDS011;9913;51.168;4.124;2024-02-26T04:12:04;11.60;;;9.53;;
19535;SDS011;9913;51.168;4.124;2024-02-26T04:14:33;14.03;;;10.13;;
19535;SDS011;9913;51.168;4.124;2024-02-26T04:17:01;12.73;;;10.33;;
19535;SDS011;9913;51.168;4.124;2024-02-26T04:19:29;10.90;;;9.20;;
19535;SDS011;9913;51.168;4.124;2024-02-26T04:21:59;11.03;;;8.67;;
19535;SDS011;9913;51.168;4.124;2024-02-26T04:24:27;10.90;;;8.43;;
19535;SDS011;9913;51.168;4.124;2024-02-26T04:26:56;10.47;;;8.20;;
19535;SDS011;9913;51.168;4.124;2024-02-26T04:29:24;10.53;;;8.60;;
19535;SDS011;9913;51.168;4.124;2024-02-26T04:31:53;10.33;;;8.50;;
19535;SDS011;9913;51.168;4.124;2024-02-26T04:34:21;11.07;;;8.40;;
19535;SDS011;9913;51.168;4.124;2024-02-26T04:36:49;9.73;;;8.23;;
19535;SDS011;9913;51.168;4.124;2024-02-26T04:39:19;10.47;;;7.77;;
19535;SDS011;9913;51.168;4.124;2024-02-26T04:41:47;11.47;;;8.17;;
19535;SDS011;9913;51.168;4.124;2024-02-26T04:44:16;8.73;;;7.20;;
19535;SDS011;9913;51.168;4.124;2024-02-26T04:46:44;10.10;;;7.40;;
19535;SDS011;9913;51.168;4.124;2024-02-26T04:49:12;7.80;;;6.37;;
19535;SDS011;9913;51.168;4.124;2024-02-26T04:51:41;8.33;;;6.27;;
19535;SDS011;9913;51.168;4.124;2024-02-26T04:54:09;9.60;;;7.07;;
19535;SDS011;9913;51.168;4.124;2024-02-26T04:56:39;19.83;;;7.37;;
19535;SDS011;9913;51.168;4.124;2024-02-26T04:59:07;9.43;;;6.90;;
19535;SDS011;9913;51.168;4.124;2024-02-26T05:01:35;8.83;;;5.80;;
19535;SDS011;9913;51.168;4.124;2024-02-26T05:04:04;8.23;;;6.70;;
19535;SDS011;9913;51.168;4.124;2024-02-26T05:06:33;7.97;;;6.63;;
19535;SDS011;9913;51.168;4.124;2024-02-26T05:09:01;9.10;;;6.80;;
19535;SDS011;9913;51.168;4.124;2024-02-26T05:11:30;8.73;;;7.60;;
19535;SDS011;9913;51.168;4.124;2024-02-26T05:14:00;9.07;;;7.00;;
19535;SDS011;9913;51.168;4.124;2024-02-26T05:16:28;9.47;;;7.33;;
19535;SDS011;9913;51.168;4.124;2024-02-26T05:18:57;10.87;;;7.23;;
19535;SDS011;9913;51.168;4.124;2024-02-26T05:21:26;12.23;;;8.17;;
19535;SDS011;9913;51.168;4.124;2024-02-26T05:23:54;9.30;;;7.50;;
19535;SDS011;9913;51.168;4.124;2024-02-26T05:26:22;9.20;;;7.17;;
19535;SDS011;9913;51.168;4.124;2024-02-26T05:28:51;11.13;;;7.23;;
19535;SDS011;9913;51.168;4.124;2024-02-26T05:31:21;7.93;;;6.40;;
19535;SDS011;9913;51.168;4.124;2024-02-26T05:33:49;8.93;;;6.53;;
19535;SDS011;9913;51.168;4.124;2024-02-26T05:36:18;7.50;;;6.47;;
19535;SDS011;9913;51.168;4.124;2024-02-26T05:38:48;10.83;;;7.07;;
19535;SDS011;9913;51.168;4.124;2024-02-26T05:41:17;8.37;;;6.57;;
19535;SDS011;9913;51.168;4.124;2024-02-26T05:43:50;9.97;;;7.50;;
19535;SDS011;9913;51.168;4.124;2024-02-26T05:46:18;10.03;;;7.70;;
19535;SDS011;9913;51.168;4.124;2024-02-26T05:48:49;7.90;;;6.80;;
19535;SDS011;9913;51.168;4.124;2024-02-26T05:51:18;9.70;;;7.03;;
19535;SDS011;9913;51.168;4.124;2024-02-26T05:53:47;8.50;;;6.97;;
19535;SDS011;9913;51.168;4.124;2024-02-26T05:56:21;10.17;;;7.47;;
19535;SDS011;9913;51.168;4.124;2024-02-26T05:58:49;10.50;;;7.30;;
19535;SDS011;9913;51.168;4.124;2024-02-26T06:01:20;9.70;;;7.97;;
19535;SDS011;9913;51.168;4.124;2024-02-26T06:03:50;9.10;;;7.70;;
19535;SDS011;9913;51.168;4.124;2024-02-26T06:06:18;11.93;;;7.87;;
19535;SDS011;9913;51.168;4.124;2024-02-26T06:08:48;10.97;;;8.03;;
19535;SDS011;9913;51.168;4.124;2024-02-26T06:11:17;12.63;;;8.30;;
19535;SDS011;9913;51.168;4.124;2024-02-26T06:13:46;10.83;;;7.60;;
19535;SDS011;9913;51.168;4.124;2024-02-26T06:16:14;11.77;;;8.10;;
19535;SDS011;9913;51.168;4.124;2024-02-26T06:18:42;10.67;;;9.17;;
19535;SDS011;9913;51.168;4.124;2024-02-26T06:21:12;11.10;;;8.23;;
19535;SDS011;9913;51.168;4.124;2024-02-26T06:23:41;9.83;;;8.07;;
19535;SDS011;9913;51.168;4.124;2024-02-26T06:26:09;10.13;;;7.97;;
19535;SDS011;9913;51.168;4.124;2024-02-26T06:28:37;10.07;;;7.47;;
19535;SDS011;9913;51.168;4.124;2024-02-26T06:31:07;9.70;;;7.80;;
19535;SDS011;9913;51.168;4.124;2024-02-26T06:33:36;8.60;;;6.93;;
19535;SDS011;9913;51.168;4.124;2024-02-26T06:36:04;10.83;;;8.30;;
19535;SDS011;9913;51.168;4.124;2024-02-26T06:38:34;9.60;;;7.40;;
19535;SDS011;9913;51.168;4.124;2024-02-26T06:41:03;10.03;;;8.63;;
19535;SDS011;9913;51.168;4.124;2024-02-26T06:43:31;10.97;;;9.27;;
19535;SDS011;9913;51.168;4.124;2024-02-26T06:46:00;12.93;;;8.83;;
19535;SDS011;9913;51.168;4.124;2024-02-26T06:48:28;11.93;;;9.03;;
19535;SDS011;9913;51.168;4.124;2024-02-26T06:50:57;13.10;;;8.50;;
19535;SDS011;9913;51.168;4.124;2024-02-26T06:53:25;12.57;;;8.50;;
19535;SDS011;9913;51.168;4.124;2024-02-26T06:55:55;10.10;;;8.27;;
19535;SDS011;9913;51.168;4.124;2024-02-26T06:58:24;11.67;;;9.27;;
19535;SDS011;9913;51.168;4.124;2024-02-26T07:00:52;10.27;;;7.97;;
19535;SDS011;9913;51.168;4.124;2024-02-26T07:03:20;9.03;;;7.47;;
19535;SDS011;9913;51.168;4.124;2024-02-26T07:05:51;10.13;;;8.10;;
19535;SDS011;9913;51.168;4.124;2024-02-26T07:08:19;9.03;;;7.77;;
19535;SDS011;9913;51.168;4.124;2024-02-26T07:10:48;9.37;;;7.50;;
19535;SDS011;9913;51.168;4.124;2024-02-26T07:13:17;8.73;;;7.13;;
19535;SDS011;9913;51.168;4.124;2024-02-26T07:15:46;10.47;;;8.27;;
19535;SDS011;9913;51.168;4.124;2024-02-26T07:18:14;10.23;;;8.10;;
19535;SDS011;9913;51.168;4.124;2024-02-26T07:20:43;10.03;;;8.20;;
19535;SDS011;9913;51.168;4.124;2024-02-26T07:23:11;10.33;;;8.60;;
19535;SDS011;9913;51.168;4.124;2024-02-26T07:25:39;10.87;;;8.40;;
19535;SDS011;9913;51.168;4.124;2024-02-26T07:28:14;12.40;;;8.50;;
19535;SDS011;9913;51.168;4.124;2024-02-26T07:30:43;10.43;;;8.33;;
19535;SDS011;9913;51.168;4.124;2024-02-26T07:33:12;10.67;;;7.70;;
19535;SDS011;9913;51.168;4.124;2024-02-26T07:35:40;10.83;;;7.90;;
19535;SDS011;9913;51.168;4.124;2024-02-26T07:38:09;10.47;;;8.03;;
19535;SDS011;9913;51.168;4.124;2024-02-26T07:40:53;14.67;;;10.30;;
19535;SDS011;9913;51.168;4.124;2024-02-26T07:43:29;9.97;;;7.33;;
19535;SDS011;9913;51.168;4.124;2024-02-26T07:45:59;10.20;;;7.87;;
19535;SDS011;9913;51.168;4.124;2024-02-26T07:48:28;9.57;;;7.70;;
19535;SDS011;9913;51.168;4.124;2024-02-26T07:50:57;11.07;;;8.00;;
19535;SDS011;9913;51.168;4.124;2024-02-26T07:53:27;9.83;;;6.80;;
19535;SDS011;9913;51.168;4.124;2024-02-26T07:55:55;7.73;;;6.60;;
19535;SDS011;9913;51.168;4.124;2024-02-26T07:58:23;10.57;;;7.30;;
19535;SDS011;9913;51.168;4.124;2024-02-26T08:00:51;9.23;;;6.53;;
19535;SDS011;9913;51.168;4.124;2024-02-26T08:03:21;8.87;;;6.57;;
19535;SDS011;9913;51.168;4.124;2024-02-26T08:05:50;9.03;;;6.30;;
19535;SDS011;9913;51.168;4.124;2024-02-26T08:08:19;7.80;;;6.17;;
19535;SDS011;9913;51.168;4.124;2024-02-26T08:10:49;8.83;;;6.03;;
19535;SDS011;9913;51.168;4.124;2024-02-26T08:13:17;11.10;;;6.63;;
19535;SDS011;9913;51.168;4.124;2024-02-26T08:15:45;8.73;;;6.30;;
19535;SDS011;9913;51.168;4.124;2024-02-26T08:18:13;9.83;;;6.93;;
19535;SDS011;9913;51.168;4.124;2024-02-26T08:20:44;11.70;;;6.73;;
19535;SDS011;9913;51.168;4.124;2024-02-26T08:23:12;10.53;;;6.90;;
19535;SDS011;9913;51.168;4.124;2024-02-26T08:25:41;14.40;;;8.47;;
19535;SDS011;9913;51.168;4.124;2024-02-26T08:28:09;11.10;;;7.10;;
19535;SDS011;9913;51.168;4.124;2024-02-26T08:30:39;11.43;;;7.30;;
19535;SDS011;9913;51.168;4.124;2024-02-26T08:33:08;9.90;;;7.60;;
19535;SDS011;9913;51.168;4.124;2024-02-26T08:35:37;11.40;;;8.20;;
19535;SDS011;9913;51.168;4.124;2024-02-26T08:38:07;9.87;;;7.33;;
19535;SDS011;9913;51.168;4.124;2024-02-26T08:40:35;12.47;;;8.73;;
19535;SDS011;9913;51.168;4.124;2024-02-26T08:43:03;13.67;;;8.90;;
19535;SDS011;9913;51.168;4.124;2024-02-26T08:45:32;11.10;;;8.70;;
19535;SDS011;9913;51.168;4.124;2024-02-26T08:48:00;9.87;;;8.40;;
19535;SDS011;9913;51.168;4.124;2024-02-26T08:50:29;10.23;;;8.10;;
19535;SDS011;9913;51.168;4.124;2024-02-26T08:52:57;13.07;;;9.17;;
19535;SDS011;9913;51.168;4.124;2024-02-26T08:55:33;12.23;;;9.03;;
19535;SDS011;9913;51.168;4.124;2024-02-26T08:58:01;11.47;;;8.73;;
19535;SDS011;9913;51.168;4.124;2024-02-26T09:00:30;12.60;;;9.93;;
19535;SDS011;9913;51.168;4.124;2024-02-26T09:02:58;12.20;;;9.93;;
19535;SDS011;9913;51.168;4.124;2024-02-26T09:05:31;12.23;;;10.03;;
19535;SDS011;9913;51.168;4.124;2024-02-26T09:07:59;13.53;;;10.13;;
19535;SDS011;9913;51.168;4.124;2024-02-26T09:10:28;14.23;;;10.07;;
19535;SDS011;9913;51.168;4.124;2024-02-26T09:12:57;13.90;;;10.30;;
19535;SDS011;9913;51.168;4.124;2024-02-26T09:15:26;12.90;;;9.93;;
19535;SDS011;9913;51.168;4.124;2024-02-26T09:17:54;11.60;;;8.73;;
19535;SDS011;9913;51.168;4.124;2024-02-26T09:20:23;12.63;;;10.33;;
19535;SDS011;9913;51.168;4.124;2024-02-26T09:22:51;14.70;;;10.80;;
19535;SDS011;9913;51.168;4.124;2024-02-26T09:25:20;13.60;;;10.00;;
19535;SDS011;9913;51.168;4.124;2024-02-26T09:27:48;13.30;;;11.10;;
19535;SDS011;9913;51.168;4.124;2024-02-26T09:30:18;12.40;;;9.67;;
19535;SDS011;9913;51.168;4.124;2024-02-26T09:32:47;12.93;;;10.43;;
19535;SDS011;9913;51.168;4.124;2024-02-26T09:35:15;13.30;;;10.43;;
19535;SDS011;9913;51.168;4.124;2024-02-26T09:37:44;14.00;;;10.53;;
19535;SDS011;9913;51.168;4.124;2024-02-26T09:40:12;13.63;;;10.30;;
19535;SDS011;9913;51.168;4.124;2024-02-26T09:42:41;13.50;;;10.13;;
19535;SDS011;9913;51.168;4.124;2024-02-26T09:45:12;11.53;;;9.60;;
19535;SDS011;9913;51.168;4.124;2024-02-26T09:47:47;12.93;;;10.13;;
19535;SDS011;9913;51.168;4.124;2024-02-26T09:50:17;12.67;;;10.43;;
19535;SDS011;9913;51.168;4.124;2024-02-26T09:52:49;14.57;;;10.70;;
19535;SDS011;9913;51.168;4.124;2024-02-26T09:55:19;12.27;;;9.63;;
19535;SDS011;9913;51.168;4.124;2024-02-26T09:57:47;14.87;;;11.27;;
19535;SDS011;9913;51.168;4.124;2024-02-26T10:00:21;14.97;;;11.57;;
19535;SDS011;9913;51.168;4.124;2024-02-26T10:02:50;12.77;;;10.53;;
19535;SDS011;9913;51.168;4.124;2024-02-26T10:05:19;13.40;;;11.00;;
19535;SDS011;9913;51.168;4.124;2024-02-26T10:07:47;12.47;;;9.40;;
19535;SDS011;9913;51.168;4.124;2024-02-26T10:10:16;14.30;;;10.97;;
19535;SDS011;9913;51.168;4.124;2024-02-26T10:12:45;12.30;;;10.13;;
19535;SDS011;9913;51.168;4.124;2024-02-26T10:15:14;16.67;;;12.17;;
19535;SDS011;9913;51.168;4.124;2024-02-26T10:17:43;14.70;;;11.63;;
19535;SDS011;9913;51.168;4.124;2024-02-26T10:20:12;14.93;;;11.40;;
19535;SDS011;9913;51.168;4.124;2024-02-26T10:22:43;14.73;;;11.23;;
19535;SDS011;9913;51.168;4.124;2024-02-26T10:25:12;12.27;;;10.00;;
19535;SDS011;9913;51.168;4.124;2024-02-26T10:27:40;13.47;;;10.43;;
19535;SDS011;9913;51.168;4.124;2024-02-26T10:30:16;14.77;;;11.17;;
19535;SDS011;9913;51.168;4.124;2024-02-26T10:32:47;16.13;;;11.20;;
19535;SDS011;9913;51.168;4.124;2024-02-26T10:35:18;14.37;;;10.50;;
19535;SDS011;9913;51.168;4.124;2024-02-26T10:37:48;15.07;;;11.03;;
19535;SDS011;9913;51.168;4.124;2024-02-26T10:40:17;17.13;;;12.27;;
19535;SDS011;9913;51.168;4.124;2024-02-26T10:42:46;16.87;;;12.23;;
19535;SDS011;9913;51.168;4.124;2024-02-26T10:45:14;14.50;;;10.53;;
19535;SDS011;9913;51.168;4.124;2024-02-26T10:47:43;17.77;;;12.83;;
19535;SDS011;9913;51.168;4.124;2024-02-26T10:50:13;16.77;;;11.43;;
19535;SDS011;9913;51.168;4.124;2024-02-26T10:52:43;18.63;;;12.63;;
19535;SDS011;9913;51.168;4.124;2024-02-26T10:55:13;19.67;;;11.50;;
19535;SDS011;9913;51.168;4.124;2024-02-26T10:57:46;18.80;;;13.27;;
19535;SDS011;9913;51.168;4.124;2024-02-26T11:00:16;19.07;;;12.80;;
19535;SDS011;9913;51.168;4.124;2024-02-26T11:02:45;16.90;;;12.90;;
19535;SDS011;9913;51.168;4.124;2024-02-26T11:05:15;19.67;;;13.50;;
19535;SDS011;9913;51.168;4.124;2024-02-26T11:07:45;19.13;;;13.00;;
19535;SDS011;9913;51.168;4.124;2024-02-26T11:10:15;20.57;;;13.50;;
19535;SDS011;9913;51.168;4.124;2024-02-26T11:12:44;20.70;;;13.53;;
19535;SDS011;9913;51.168;4.124;2024-02-26T11:15:14;19.43;;;12.60;;
19535;SDS011;9913;51.168;4.124;2024-02-26T11:17:44;17.93;;;12.43;;
19535;SDS011;9913;51.168;4.124;2024-02-26T11:20:16;17.37;;;11.90;;
19535;SDS011;9913;51.168;4.124;2024-02-26T11:22:45;22.43;;;12.93;;
19535;SDS011;9913;51.168;4.124;2024-02-26T11:25:13;20.40;;;13.23;;
19535;SDS011;9913;51.168;4.124;2024-02-26T11:27:45;18.87;;;11.97;;
19535;SDS011;9913;51.168;4.124;2024-02-26T11:30:15;20.60;;;12.50;;
19535;SDS011;9913;51.168;4.124;2024-02-26T11:32:46;17.77;;;11.77;;
19535;SDS011;9913;51.168;4.124;2024-02-26T11:35:17;17.10;;;10.80;;
19535;SDS011;9913;51.168;4.124;2024-02-26T11:37:51;18.63;;;10.97;;
19535;SDS011;9913;51.168;4.124;2024-02-26T11:40:23;18.17;;;10.60;;
19535;SDS011;9913;51.168;4.124;2024-02-26T11:42:52;16.23;;;11.10;;
19535;SDS011;9913;51.168;4.124;2024-02-26T11:48:22;18.73;;;11.43;;
19535;SDS011;9913;51.168;4.124;2024-02-26T11:50:54;17.80;;;11.47;;
19535;SDS011;9913;51.168;4.124;2024-02-26T11:53:23;16.53;;;10.90;;
19535;SDS011;9913;51.168;4.124;2024-02-26T11:58:48;20.00;;;12.10;;
19535;SDS011;9913;51.168;4.124;2024-02-26T12:01:40;20.97;;;12.83;;
19535;SDS011;9913;51.168;4.124;2024-02-26T12:04:13;16.73;;;10.40;;
19535;SDS011;9913;51.168;4.124;2024-02-26T12:06:45;16.80;;;10.30;;
19535;SDS011;9913;51.168;4.124;2024-02-26T12:12:03;14.47;;;9.67;;
19535;SDS011;9913;51.168;4.124;2024-02-26T12:14:33;17.33;;;10.93;;
19535;SDS011;9913;51.168;4.124;2024-02-26T12:17:03;13.27;;;9.90;;
19535;SDS011;9913;51.168;4.124;2024-02-26T12:19:34;17.00;;;11.37;;
19535;SDS011;9913;51.168;4.124;2024-02-26T12:22:09;15.57;;;10.00;;
19535;SDS011;9913;51.168;4.124;2024-02-26T12:24:41;17.47;;;10.70;;
19535;SDS011;9913;51.168;4.124;2024-02-26T12:27:09;16.00;;;11.13;;
19535;SDS011;9913;51.168;4.124;2024-02-26T12:29:37;14.20;;;10.33;;
19535;SDS011;9913;51.168;4.124;2024-02-26T12:32:07;15.33;;;11.10;;
19535;SDS011;9913;51.168;4.124;2024-02-26T12:34:35;16.83;;;12.07;;
19535;SDS011;9913;51.168;4.124;2024-02-26T12:37:04;19.80;;;12.33;;
19535;SDS011;9913;51.168;4.124;2024-02-26T12:39:35;18.77;;;12.37;;
19535;SDS011;9913;51.168;4.124;2024-02-26T12:42:05;18.80;;;11.80;;
19535;SDS011;9913;51.168;4.124;2024-02-26T12:44:33;16.00;;;10.50;;
19535;SDS011;9913;51.168;4.124;2024-02-26T12:47:02;13.77;;;9.50;;
19535;SDS011;9913;51.168;4.124;2024-02-26T12:49:31;13.37;;;10.20;;
19535;SDS011;9913;51.168;4.124;2024-02-26T12:52:00;14.40;;;9.20;;
19535;SDS011;9913;51.168;4.124;2024-02-26T12:54:30;15.40;;;10.50;;
19535;SDS011;9913;51.168;4.124;2024-02-26T12:57:01;12.70;;;9.23;;
19535;SDS011;9913;51.168;4.124;2024-02-26T12:59:33;13.13;;;9.63;;
19535;SDS011;9913;51.168;4.124;2024-02-26T13:02:03;14.03;;;9.37;;
19535;SDS011;9913;51.168;4.124;2024-02-26T13:04:34;15.37;;;10.77;;
19535;SDS011;9913;51.168;4.124;2024-02-26T13:07:03;12.47;;;9.43;;
19535;SDS011;9913;51.168;4.124;2024-02-26T13:09:32;14.63;;;10.10;;
19535;SDS011;9913;51.168;4.124;2024-02-26T13:12:05;15.10;;;10.03;;
19535;SDS011;9913;51.168;4.124;2024-02-26T13:14:34;14.27;;;8.83;;
19535;SDS011;9913;51.168;4.124;2024-02-26T13:17:03;14.23;;;9.93;;
19535;SDS011;9913;51.168;4.124;2024-02-26T13:19:32;12.90;;;8.23;;
19535;SDS011;9913;51.168;4.124;2024-02-26T13:22:04;13.70;;;8.93;;
19535;SDS011;9913;51.168;4.124;2024-02-26T13:24:34;14.03;;;9.83;;
19535;SDS011;9913;51.168;4.124;2024-02-26T13:27:04;14.23;;;10.37;;
19535;SDS011;9913;51.168;4.124;2024-02-26T13:29:34;14.70;;;9.70;;
19535;SDS011;9913;51.168;4.124;2024-02-26T13:32:02;15.10;;;10.20;;
19535;SDS011;9913;51.168;4.124;2024-02-26T13:34:32;14.20;;;10.43;;
19535;SDS011;9913;51.168;4.124;2024-02-26T13:37:02;13.17;;;10.23;;
19535;SDS011;9913;51.168;4.124;2024-02-26T13:39:32;13.50;;;9.70;;
19535;SDS011;9913;51.168;4.124;2024-02-26T13:42:06;14.80;;;9.90;;
19535;SDS011;9913;51.168;4.124;2024-02-26T13:44:38;12.63;;;9.43;;
19535;SDS011;9913;51.168;4.124;2024-02-26T13:47:08;13.80;;;9.13;;
19535;SDS011;9913;51.168;4.124;2024-02-26T13:49:36;14.33;;;9.13;;
19535;SDS011;9913;51.168;4.124;2024-02-26T13:52:04;12.70;;;9.77;;
19535;SDS011;9913;51.168;4.124;2024-02-26T13:54:33;13.23;;;9.07;;
19535;SDS011;9913;51.168;4.124;2024-02-26T13:57:02;10.53;;;8.53;;
19535;SDS011;9913;51.168;4.124;2024-02-26T13:59:32;10.97;;;8.60;;
19535;SDS011;9913;51.168;4.124;2024-02-26T14:02:01;12.07;;;8.70;;
19535;SDS011;9913;51.168;4.124;2024-02-26T14:04:29;11.50;;;8.80;;
19535;SDS011;9913;51.168;4.124;2024-02-26T14:06:58;13.60;;;9.17;;
19535;SDS011;9913;51.168;4.124;2024-02-26T14:09:26;11.90;;;8.90;;
19535;SDS011;9913;51.168;4.124;2024-02-26T14:12:09;11.33;;;8.90;;
19535;SDS011;9913;51.168;4.124;2024-02-26T14:14:39;10.80;;;8.10;;
19535;SDS011;9913;51.168;4.124;2024-02-26T14:17:09;13.70;;;9.50;;
19535;SDS011;9913;51.168;4.124;2024-02-26T14:19:38;13.23;;;9.53;;
19535;SDS011;9913;51.168;4.124;2024-02-26T14:22:10;10.73;;;8.60;;
19535;SDS011;9913;51.168;4.124;2024-02-26T14:24:39;13.20;;;9.57;;
19535;SDS011;9913;51.168;4.124;2024-02-26T14:27:08;13.30;;;9.17;;
19535;SDS011;9913;51.168;4.124;2024-02-26T14:29:40;13.60;;;9.80;;
19535;SDS011;9913;51.168;4.124;2024-02-26T14:32:08;14.40;;;10.17;;
19535;SDS011;9913;51.168;4.124;2024-02-26T14:34:37;14.57;;;10.60;;
19535;SDS011;9913;51.168;4.124;2024-02-26T14:37:05;11.10;;;8.43;;
19535;SDS011;9913;51.168;4.124;2024-02-26T14:39:34;12.50;;;9.27;;
19535;SDS011;9913;51.168;4.124;2024-02-26T14:42:02;11.43;;;8.60;;
19535;SDS011;9913;51.168;4.124;2024-02-26T14:44:31;11.20;;;8.80;;
19535;SDS011;9913;51.168;4.124;2024-02-26T14:47:01;9.07;;;7.43;;
19535;SDS011;9913;51.168;4.124;2024-02-26T14:49:29;12.63;;;8.77;;
19535;SDS011;9913;51.168;4.124;2024-02-26T14:51:59;11.40;;;8.57;;
19535;SDS011;9913;51.168;4.124;2024-02-26T14:54:29;11.73;;;8.43;;
19535;SDS011;9913;51.168;4.124;2024-02-26T14:56:59;12.83;;;9.37;;
19535;SDS011;9913;51.168;4.124;2024-02-26T14:59:27;14.40;;;10.73;;
19535;SDS011;9913;51.168;4.124;2024-02-26T15:01:56;15.03;;;10.07;;
19535;SDS011;9913;51.168;4.124;2024-02-26T15:04:27;17.47;;;10.63;;
19535;SDS011;9913;51.168;4.124;2024-02-26T15:06:56;15.47;;;11.57;;
19535;SDS011;9913;51.168;4.124;2024-02-26T15:09:24;13.90;;;10.07;;